GRZ506 Details

Departure: Juneau International Airport (PAJN)
Arrival: Fairbanks International Airport (PAFA)
Route: JNU5 SSR J502 RDFLG HRDNG2


Current Weather Information
PAJN 260053Z 14009KT 10SM -RA FEW016 BKN034 OVC043 05/02 A3018 RMK AO2 RAB18 SLP218 P0000 T00500022
PAFA 260053Z 36006KT 10SM SCT075 BKN090 09/M09 A3015 RMK AO2 SLP216 VIRGA T00891089 VISNO NE